createdAt,value
2022-11-16T00:02:06.820Z,10.77
2022-11-16T00:04:33.583Z,10.70
2022-11-16T00:07:02.672Z,10.80
2022-11-16T00:09:31.942Z,10.80
2022-11-16T00:12:02.067Z,10.82
2022-11-16T00:14:32.728Z,10.70
2022-11-16T00:16:59.955Z,10.48
2022-11-16T00:19:27.246Z,10.50
2022-11-16T00:21:54.242Z,10.73
2022-11-16T00:24:22.372Z,10.95
2022-11-16T00:26:50.083Z,10.45
2022-11-16T00:29:19.729Z,10.93
2022-11-16T00:31:46.951Z,10.57
2022-11-16T00:34:13.974Z,10.52
2022-11-16T00:36:40.608Z,10.70
2022-11-16T00:39:07.309Z,10.90
2022-11-16T00:41:33.823Z,10.93
2022-11-16T00:44:00.361Z,9.52
2022-11-16T00:46:26.948Z,10.88
2022-11-16T00:48:53.668Z,9.85
2022-11-16T00:51:20.413Z,10.77
2022-11-16T00:53:47.532Z,11.48
2022-11-16T00:56:14.130Z,11.38
2022-11-16T00:58:43.639Z,11.05
2022-11-16T01:01:12.274Z,10.75
2022-11-16T01:03:38.982Z,11.30
2022-11-16T01:06:08.265Z,11.07
2022-11-16T01:08:37.104Z,11.80
2022-11-16T01:11:23.475Z,11.48
2022-11-16T01:13:50.132Z,10.80
2022-11-16T01:16:18.461Z,11.07
2022-11-16T01:18:48.990Z,11.85
2022-11-16T01:21:15.918Z,11.88
2022-11-16T01:23:42.498Z,11.68
2022-11-16T01:26:09.308Z,12.27
2022-11-16T01:28:37.464Z,12.30
2022-11-16T01:31:04.198Z,11.10
2022-11-16T01:33:34.107Z,12.23
2022-11-16T01:36:01.093Z,10.82
2022-11-16T01:38:29.996Z,11.40
2022-11-16T01:40:57.254Z,12.15
2022-11-16T01:43:27.036Z,12.93
2022-11-16T01:46:00.228Z,12.23
2022-11-16T01:48:29.917Z,10.90
2022-11-16T01:50:57.612Z,12.00
2022-11-16T01:53:25.280Z,11.93
2022-11-16T01:55:55.455Z,11.27
2022-11-16T01:58:27.487Z,11.95
2022-11-16T02:01:03.774Z,11.60
2022-11-16T02:03:39.042Z,11.27
2022-11-16T02:06:28.528Z,12.32
2022-11-16T02:09:30.888Z,12.55
2022-11-16T02:12:22.267Z,12.20
2022-11-16T02:15:07.100Z,11.70
2022-11-16T02:18:03.946Z,12.13
2022-11-16T02:20:52.296Z,12.27
2022-11-16T02:23:46.639Z,12.90
2022-11-16T02:26:21.962Z,14.40
2022-11-16T02:29:22.584Z,12.98
2022-11-16T02:32:04.678Z,13.52
2022-11-16T02:34:37.308Z,13.93
2022-11-16T02:37:06.769Z,11.95
2022-11-16T02:39:36.898Z,12.15
2022-11-16T02:42:05.847Z,12.93
2022-11-16T02:44:38.957Z,12.98
2022-11-16T02:47:09.764Z,12.30
2022-11-16T02:49:42.145Z,13.45
2022-11-16T02:52:10.917Z,12.52
2022-11-16T02:54:37.838Z,11.90
2022-11-16T02:57:04.799Z,12.65
2022-11-16T02:59:52.909Z,13.68
2022-11-16T03:02:45.690Z,13.88
2022-11-16T03:05:34.524Z,13.38
2022-11-16T03:08:16.431Z,13.68
2022-11-16T03:11:06.904Z,13.10
2022-11-16T03:13:35.577Z,12.18
2022-11-16T03:16:08.223Z,13.98
2022-11-16T03:18:35.320Z,13.43
2022-11-16T03:21:10.377Z,12.88
2022-11-16T03:23:37.432Z,13.27
2022-11-16T03:26:08.007Z,13.85
2022-11-16T03:28:47.590Z,14.38
2022-11-16T03:31:24.156Z,13.32
2022-11-16T03:33:56.105Z,14.18
2022-11-16T03:36:28.713Z,14.00
2022-11-16T03:38:58.874Z,13.95
2022-11-16T03:41:28.010Z,12.85
2022-11-16T03:43:56.214Z,15.02
2022-11-16T03:46:24.386Z,13.98
2022-11-16T03:48:57.532Z,15.02
2022-11-16T03:51:26.649Z,17.33
2022-11-16T03:53:54.295Z,13.60
2022-11-16T03:56:20.944Z,14.40
2022-11-16T03:58:47.479Z,14.52
2022-11-16T04:01:14.177Z,13.25
2022-11-16T04:03:44.687Z,14.35
2022-11-16T04:06:29.999Z,13.18
2022-11-16T04:09:15.326Z,13.57
2022-11-16T04:12:00.514Z,13.20
2022-11-16T04:14:46.866Z,13.68
2022-11-16T04:17:44.620Z,14.25
2022-11-16T04:20:32.778Z,14.43
2022-11-16T04:23:30.919Z,15.07
2022-11-16T04:25:57.689Z,13.68
2022-11-16T04:28:28.524Z,13.68
2022-11-16T04:31:35.767Z,15.35
2022-11-16T04:34:25.429Z,15.10
2022-11-16T04:37:13.648Z,16.48
2022-11-16T04:39:40.791Z,13.52
2022-11-16T04:42:19.956Z,13.27
2022-11-16T04:45:08.353Z,16.02
2022-11-16T04:47:44.838Z,17.35
2022-11-16T04:50:11.772Z,16.42
2022-11-16T04:52:40.144Z,14.95
2022-11-16T04:55:09.711Z,14.10
2022-11-16T04:57:37.476Z,16.65
2022-11-16T05:00:06.533Z,15.25
2022-11-16T05:02:35.334Z,15.35
2022-11-16T05:05:01.988Z,17.20
2022-11-16T05:07:29.621Z,14.70
2022-11-16T05:10:05.214Z,17.08
2022-11-16T05:12:32.797Z,18.38
2022-11-16T05:15:01.867Z,16.33
2022-11-16T05:17:31.350Z,16.98
2022-11-16T05:20:18.119Z,17.10
2022-11-16T05:22:56.049Z,15.70
2022-11-16T05:25:24.641Z,15.25
2022-11-16T05:27:51.902Z,15.70
2022-11-16T05:30:18.706Z,14.48
2022-11-16T05:32:45.334Z,15.68
2022-11-16T05:35:13.519Z,16.70
2022-11-16T05:37:40.279Z,15.25
2022-11-16T05:40:07.675Z,15.18
2022-11-16T05:42:47.591Z,14.18
2022-11-16T05:45:19.808Z,12.73
2022-11-16T05:47:48.115Z,15.18
2022-11-16T05:50:15.866Z,14.73
2022-11-16T05:52:46.205Z,15.70
2022-11-16T05:55:12.801Z,17.67
2022-11-16T05:57:42.384Z,16.73
2022-11-16T06:00:09.687Z,15.02
2022-11-16T06:02:42.480Z,17.42
2022-11-16T06:05:17.697Z,19.15
2022-11-16T06:07:45.478Z,21.95
2022-11-16T06:10:12.285Z,26.45
2022-11-16T06:12:42.850Z,26.25
2022-11-16T06:15:09.623Z,22.00
2022-11-16T06:17:36.925Z,25.13
2022-11-16T06:20:03.861Z,23.73
2022-11-16T06:22:31.034Z,22.08
2022-11-16T06:24:57.876Z,23.10
2022-11-16T06:27:25.575Z,18.52
2022-11-16T06:29:52.106Z,19.88
2022-11-16T06:32:18.690Z,17.98
2022-11-16T06:34:45.429Z,23.02
2022-11-16T06:37:12.439Z,23.08
2022-11-16T06:39:39.145Z,21.63
2022-11-16T06:42:05.655Z,22.83
2022-11-16T06:44:32.621Z,21.02
2022-11-16T06:47:02.778Z,24.83
2022-11-16T06:49:29.382Z,23.20
2022-11-16T06:52:00.086Z,22.65
2022-11-16T06:54:27.103Z,21.27
2022-11-16T06:56:53.599Z,20.40
2022-11-16T06:59:21.042Z,20.65
2022-11-16T07:01:47.834Z,21.05
2022-11-16T07:04:14.779Z,20.63
2022-11-16T07:06:47.526Z,22.90
2022-11-16T07:09:15.994Z,22.38
2022-11-16T07:11:43.309Z,22.88
2022-11-16T07:14:11.796Z,28.33
2022-11-16T07:16:38.464Z,28.00
2022-11-16T07:19:06.128Z,28.88
2022-11-16T07:21:34.386Z,26.80
2022-11-16T07:24:04.483Z,26.48
2022-11-16T07:26:35.376Z,26.75
2022-11-16T07:29:08.072Z,24.92
2022-11-16T07:31:37.794Z,28.33
2022-11-16T07:34:28.434Z,26.02
2022-11-16T07:37:07.555Z,23.48
2022-11-16T07:39:34.175Z,21.83
2022-11-16T07:42:00.708Z,22.73
2022-11-16T07:44:43.436Z,22.35
2022-11-16T07:47:10.664Z,19.67
2022-11-16T07:49:37.480Z,19.92
2022-11-16T07:52:10.270Z,19.25
2022-11-16T07:54:44.173Z,20.38
2022-11-16T07:57:10.968Z,19.15
2022-11-16T07:59:40.526Z,20.20
2022-11-16T08:02:08.848Z,20.45
2022-11-16T08:04:38.663Z,20.45
2022-11-16T08:07:05.550Z,20.63
2022-11-16T08:09:38.055Z,21.67
2022-11-16T08:12:04.987Z,20.08
2022-11-16T08:14:32.635Z,18.10
2022-11-16T08:16:59.157Z,19.27
2022-11-16T08:19:25.999Z,20.42
2022-11-16T08:21:52.810Z,19.95
2022-11-16T08:24:20.005Z,20.85
2022-11-16T08:26:46.769Z,17.52
2022-11-16T08:29:15.223Z,17.70
2022-11-16T08:31:47.445Z,16.90
2022-11-16T08:34:17.882Z,16.58
2022-11-16T08:36:48.708Z,16.50
2022-11-16T08:39:16.923Z,17.75
2022-11-16T08:41:44.337Z,18.42
2022-11-16T08:44:11.706Z,18.25
2022-11-16T08:46:41.468Z,17.13
2022-11-16T08:49:16.956Z,15.75
2022-11-16T08:51:43.440Z,16.95
2022-11-16T08:54:10.357Z,17.52
2022-11-16T08:56:39.043Z,15.57
2022-11-16T08:59:05.703Z,17.15
2022-11-16T09:01:32.931Z,16.25
2022-11-16T09:03:59.979Z,16.60
2022-11-16T09:06:27.493Z,15.95
2022-11-16T09:08:54.490Z,16.38
2022-11-16T09:11:22.861Z,17.13
2022-11-16T09:13:51.736Z,17.60
2022-11-16T09:16:20.760Z,16.10
2022-11-16T09:18:49.673Z,16.90
2022-11-16T09:21:20.406Z,14.95
2022-11-16T09:23:48.063Z,15.93
2022-11-16T09:26:15.070Z,16.25
2022-11-16T09:28:42.408Z,16.73
2022-11-16T09:31:10.181Z,15.95
2022-11-16T09:33:37.676Z,15.52
2022-11-16T09:36:07.314Z,15.75
2022-11-16T09:39:03.169Z,15.77
2022-11-16T09:41:30.888Z,15.70
2022-11-16T09:44:04.010Z,15.15
2022-11-16T09:46:39.592Z,16.15
2022-11-16T09:49:21.236Z,16.02
2022-11-16T09:51:51.387Z,15.48
2022-11-16T09:54:22.279Z,14.60
2022-11-16T09:56:53.563Z,14.18
2022-11-16T09:59:24.758Z,14.05
2022-11-16T10:01:51.261Z,13.93
2022-11-16T10:04:22.531Z,13.60
2022-11-16T10:07:02.994Z,15.07
2022-11-16T10:09:30.586Z,14.30
2022-11-16T10:12:15.313Z,12.80
2022-11-16T10:15:01.344Z,13.35
2022-11-16T10:17:56.382Z,12.30
2022-11-16T10:20:41.570Z,12.52
2022-11-16T10:23:08.022Z,12.05
2022-11-16T10:25:43.682Z,11.07
2022-11-16T10:28:28.482Z,10.70
2022-11-16T10:31:05.911Z,10.35
2022-11-16T10:33:37.070Z,9.43
2022-11-16T10:36:12.969Z,9.18
2022-11-16T10:38:41.307Z,8.80
2022-11-16T10:41:25.965Z,8.80
2022-11-16T10:43:55.594Z,8.60
2022-11-16T10:46:42.158Z,8.60
2022-11-16T10:49:33.470Z,7.57
2022-11-16T10:52:00.291Z,8.40
2022-11-16T10:54:26.799Z,7.15
2022-11-16T10:57:03.803Z,6.90
2022-11-16T10:59:55.959Z,6.47
2022-11-16T11:02:36.442Z,6.25
2022-11-16T11:05:20.283Z,5.30
2022-11-16T11:10:29.626Z,5.28
2022-11-16T11:13:11.334Z,5.70
2022-11-16T11:15:40.021Z,5.57
2022-11-16T11:18:15.755Z,4.95
2022-11-16T11:20:45.610Z,5.22
2022-11-16T11:23:21.382Z,5.05
2022-11-16T11:25:59.234Z,4.80
2022-11-16T11:28:34.744Z,4.78
2022-11-16T11:31:06.127Z,4.97
2022-11-16T11:33:49.938Z,4.32
2022-11-16T11:36:21.481Z,4.38
2022-11-16T11:38:58.735Z,3.80
2022-11-16T11:41:28.199Z,4.20
2022-11-16T11:44:25.081Z,4.30
2022-11-16T11:47:42.312Z,3.85
2022-11-16T11:49:52.951Z,3.72
2022-11-16T11:52:26.064Z,3.88
2022-11-16T11:54:54.742Z,3.83
2022-11-16T11:57:23.882Z,3.50
2022-11-16T11:59:52.892Z,3.45
2022-11-16T12:02:53.433Z,3.38
2022-11-16T12:05:40.882Z,3.40
2022-11-16T12:08:12.511Z,3.30
2022-11-16T12:11:11.148Z,3.70
2022-11-16T12:14:17.146Z,3.42
2022-11-16T12:17:00.595Z,3.55
2022-11-16T12:19:38.930Z,3.20
2022-11-16T12:22:14.565Z,4.35
2022-11-16T12:24:56.707Z,3.03
2022-11-16T12:27:35.297Z,2.90
2022-11-16T12:30:21.560Z,2.70
2022-11-16T12:32:52.536Z,2.83
2022-11-16T12:35:31.019Z,3.13
2022-11-16T12:38:29.161Z,2.97
2022-11-16T12:41:31.584Z,2.50
2022-11-16T12:44:05.075Z,2.50
2022-11-16T12:46:57.484Z,2.53
2022-11-16T12:49:41.533Z,3.78
2022-11-16T12:52:39.422Z,5.18
2022-11-16T12:55:31.330Z,5.28
2022-11-16T12:57:58.043Z,7.65
2022-11-16T13:00:24.729Z,4.85
2022-11-16T13:03:13.001Z,5.10
2022-11-16T13:05:42.666Z,4.28
2022-11-16T13:08:32.464Z,3.63
2022-11-16T13:11:14.297Z,2.90
2022-11-16T13:13:48.098Z,2.88
2022-11-16T13:16:19.633Z,3.30
2022-11-16T13:18:46.621Z,4.38
2022-11-16T13:21:28.343Z,2.85
2022-11-16T13:24:17.080Z,2.85
2022-11-16T13:26:55.727Z,2.80
2022-11-16T13:29:50.941Z,2.63
2022-11-16T13:32:24.956Z,2.80
2022-11-16T13:34:52.305Z,2.83
2022-11-16T13:37:34.074Z,2.60
2022-11-16T13:40:00.641Z,2.50
2022-11-16T13:42:30.038Z,3.78
2022-11-16T13:45:08.500Z,3.22
2022-11-16T13:47:35.775Z,3.20
2022-11-16T13:50:05.746Z,3.17
2022-11-16T13:53:36.352Z,3.58
2022-11-16T13:55:38.497Z,3.80
2022-11-16T13:58:07.474Z,4.22
2022-11-16T14:00:39.746Z,3.20
2022-11-16T14:03:11.983Z,2.80
2022-11-16T14:05:41.637Z,3.75
2022-11-16T14:08:20.215Z,3.30
2022-11-16T14:10:52.770Z,3.40
2022-11-16T14:13:45.619Z,4.00
2022-11-16T14:16:15.472Z,3.60
2022-11-16T14:18:42.788Z,4.35
2022-11-16T14:21:25.593Z,4.15
2022-11-16T14:24:10.183Z,7.93
2022-11-16T14:27:03.868Z,9.98
2022-11-16T14:29:37.320Z,41.70
2022-11-16T14:32:04.890Z,44.03
2022-11-16T14:34:40.430Z,37.03
2022-11-16T14:37:14.787Z,13.82
2022-11-16T14:39:43.568Z,12.10
2022-11-16T14:42:48.093Z,11.38
2022-11-16T14:45:27.723Z,5.85
2022-11-16T14:48:16.529Z,4.70
2022-11-16T14:50:46.219Z,4.60
2022-11-16T14:53:17.580Z,21.48
2022-11-16T14:55:45.980Z,17.00
2022-11-16T14:58:21.089Z,11.10
2022-11-16T15:00:58.497Z,12.55
2022-11-16T15:03:28.168Z,9.13
2022-11-16T15:06:00.138Z,10.45
2022-11-16T15:08:33.362Z,10.05
2022-11-16T15:11:00.247Z,9.85
2022-11-16T15:13:27.181Z,9.23
2022-11-16T15:16:14.499Z,9.43
2022-11-16T15:18:41.014Z,8.30
2022-11-16T15:21:20.952Z,7.95
2022-11-16T15:24:02.065Z,8.05
2022-11-16T15:26:35.310Z,7.82
2022-11-16T15:29:01.831Z,7.38
2022-11-16T15:31:28.376Z,5.50
2022-11-16T15:33:54.909Z,5.65
2022-11-16T15:36:39.386Z,5.80
2022-11-16T15:39:11.919Z,7.15
2022-11-16T15:41:39.146Z,7.07
2022-11-16T15:44:15.118Z,6.28
2022-11-16T15:46:45.830Z,6.18
2022-11-16T15:49:40.112Z,6.70
2022-11-16T15:52:06.839Z,7.13
2022-11-16T15:54:55.592Z,7.18
2022-11-16T15:57:23.945Z,7.10
2022-11-16T15:59:54.717Z,7.53
2022-11-16T16:02:23.650Z,8.30
2022-11-16T16:04:50.587Z,8.80
2022-11-16T16:07:37.494Z,10.88
2022-11-16T16:10:19.180Z,11.77
2022-11-16T16:12:53.664Z,11.60
2022-11-16T16:15:23.808Z,9.90
2022-11-16T16:17:50.794Z,8.15
2022-11-16T16:20:20.334Z,8.27
2022-11-16T16:22:46.822Z,8.25
2022-11-16T16:25:30.972Z,8.20
2022-11-16T16:27:58.236Z,7.40
2022-11-16T16:30:25.266Z,7.43
2022-11-16T16:32:52.941Z,8.85
2022-11-16T16:35:21.813Z,15.77
2022-11-16T16:37:50.146Z,13.70
2022-11-16T16:40:17.787Z,12.90
2022-11-16T16:42:47.934Z,15.48
2022-11-16T16:45:18.836Z,14.75
2022-11-16T16:47:45.495Z,17.55
2022-11-16T16:50:12.830Z,14.90
2022-11-16T16:52:39.841Z,13.73
2022-11-16T16:55:06.713Z,13.00
2022-11-16T16:57:33.187Z,12.23
2022-11-16T16:59:59.820Z,12.35
2022-11-16T17:02:26.822Z,11.30
2022-11-16T17:04:53.492Z,11.02
2022-11-16T17:07:20.062Z,12.50
2022-11-16T17:09:46.853Z,11.40
2022-11-16T17:12:13.516Z,10.45
2022-11-16T17:14:40.054Z,9.82
2022-11-16T17:17:06.551Z,10.13
2022-11-16T17:19:33.074Z,11.35
2022-11-16T17:21:59.980Z,14.18
2022-11-16T17:24:26.613Z,15.20
2022-11-16T17:26:53.358Z,15.60
2022-11-16T17:29:19.836Z,18.60
2022-11-16T17:31:47.254Z,16.40
2022-11-16T17:34:14.363Z,21.00
2022-11-16T17:36:41.812Z,20.25
2022-11-16T17:39:08.455Z,19.60
2022-11-16T17:41:34.916Z,22.10
2022-11-16T17:44:01.479Z,15.85
2022-11-16T17:46:29.029Z,14.75
2022-11-16T17:48:56.256Z,15.38
2022-11-16T17:51:24.818Z,14.38
2022-11-16T17:53:52.272Z,15.80
2022-11-16T17:56:21.683Z,17.42
2022-11-16T17:58:50.237Z,16.38
2022-11-16T18:01:16.943Z,15.38
2022-11-16T18:03:43.533Z,15.30
2022-11-16T18:06:13.456Z,18.02
2022-11-16T18:08:40.993Z,16.20
2022-11-16T18:11:11.861Z,15.35
2022-11-16T18:13:38.758Z,14.80
2022-11-16T18:16:07.792Z,13.88
2022-11-16T18:18:34.464Z,11.38
2022-11-16T18:21:01.743Z,10.50
2022-11-16T18:23:29.081Z,10.70
2022-11-16T18:25:56.143Z,10.15
2022-11-16T18:28:23.371Z,18.23
2022-11-16T18:30:50.027Z,20.08
2022-11-16T18:33:17.057Z,18.73
2022-11-16T18:35:44.149Z,18.00
2022-11-16T18:38:13.555Z,16.90
2022-11-16T18:40:40.394Z,18.50
2022-11-16T18:43:12.638Z,17.88
2022-11-16T18:45:39.182Z,19.90
2022-11-16T18:48:05.826Z,24.58
2022-11-16T18:50:32.476Z,22.50
2022-11-16T18:52:58.932Z,22.23
2022-11-16T18:55:25.435Z,23.17
2022-11-16T18:57:51.910Z,24.65
2022-11-16T19:00:19.453Z,20.33
2022-11-16T19:02:45.936Z,19.50
2022-11-16T19:05:12.634Z,19.15
2022-11-16T19:07:39.234Z,18.13
2022-11-16T19:10:06.365Z,17.40
2022-11-16T19:12:32.861Z,17.40
2022-11-16T19:14:59.589Z,18.33
2022-11-16T19:17:27.023Z,22.42
2022-11-16T19:19:53.515Z,24.60
2022-11-16T19:22:20.536Z,26.90
2022-11-16T19:24:47.062Z,26.38
2022-11-16T19:27:13.629Z,24.25
2022-11-16T19:29:40.145Z,29.90
2022-11-16T19:32:06.700Z,31.05
2022-11-16T19:34:33.685Z,23.88
2022-11-16T19:37:00.310Z,20.92
2022-11-16T19:39:26.851Z,28.60
2022-11-16T19:41:53.341Z,32.83
2022-11-16T19:44:20.138Z,24.73
2022-11-16T19:46:46.684Z,26.02
2022-11-16T19:49:20.008Z,41.38
2022-11-16T19:54:14.769Z,25.13
2022-11-16T19:56:42.406Z,19.08
2022-11-16T19:59:09.319Z,19.05
2022-11-16T20:01:35.961Z,19.15
2022-11-16T20:04:03.606Z,26.33
2022-11-16T20:06:32.336Z,21.63
2022-11-16T20:09:02.084Z,19.45
2022-11-16T20:11:33.609Z,22.00
2022-11-16T20:14:00.631Z,22.23
2022-11-16T20:16:35.424Z,32.42
2022-11-16T20:19:05.643Z,24.95
2022-11-16T20:21:40.827Z,29.50
2022-11-16T20:24:10.554Z,29.65
2022-11-16T20:26:42.011Z,29.55
2022-11-16T20:29:11.370Z,33.35
2022-11-16T20:31:42.340Z,34.90
2022-11-16T20:34:14.641Z,37.65
2022-11-16T20:36:44.149Z,34.60
2022-11-16T20:39:15.550Z,28.00
2022-11-16T20:41:42.938Z,26.73
2022-11-16T20:44:16.310Z,31.98
2022-11-16T20:46:45.001Z,32.05
2022-11-16T20:49:11.679Z,29.15
2022-11-16T20:51:38.217Z,28.75
2022-11-16T20:54:04.731Z,28.08
2022-11-16T20:56:31.355Z,26.88
2022-11-16T20:58:58.215Z,26.30
2022-11-16T21:01:31.577Z,28.05
2022-11-16T21:06:27.147Z,24.25
2022-11-16T21:08:54.562Z,27.30
2022-11-16T21:11:24.962Z,37.50
2022-11-16T21:14:10.898Z,31.77
2022-11-16T21:16:37.902Z,29.08
2022-11-16T21:19:05.406Z,26.60
2022-11-16T21:21:32.231Z,24.67
2022-11-16T21:23:58.856Z,26.25
2022-11-16T21:26:27.736Z,23.92
2022-11-16T21:28:54.665Z,20.50
2022-11-16T21:31:26.666Z,19.50
2022-11-16T21:33:54.097Z,19.80
2022-11-16T21:36:22.837Z,19.17
2022-11-16T21:38:49.743Z,15.48
2022-11-16T21:41:17.907Z,18.23
2022-11-16T21:43:44.720Z,18.30
2022-11-16T21:46:17.221Z,15.65
2022-11-16T21:48:44.683Z,14.60
2022-11-16T21:51:14.076Z,16.83
2022-11-16T21:53:40.983Z,18.83
2022-11-16T21:56:11.656Z,21.05
2022-11-16T21:58:41.874Z,17.35
2022-11-16T22:01:09.883Z,17.92
2022-11-16T22:03:37.061Z,18.80
2022-11-16T22:06:24.615Z,17.08
2022-11-16T22:08:51.189Z,17.52
2022-11-16T22:11:17.789Z,20.63
2022-11-16T22:13:44.323Z,20.50
2022-11-16T22:16:15.000Z,20.45
2022-11-16T22:18:41.807Z,20.25
2022-11-16T22:21:08.855Z,17.90
2022-11-16T22:23:36.552Z,16.83
2022-11-16T22:26:09.235Z,16.10
2022-11-16T22:28:36.637Z,21.98
2022-11-16T22:31:07.093Z,18.17
2022-11-16T22:33:34.605Z,15.60
2022-11-16T22:36:01.541Z,22.10
2022-11-16T22:38:28.094Z,22.60
2022-11-16T22:40:56.262Z,20.48
2022-11-16T22:43:25.607Z,16.80
2022-11-16T22:45:52.218Z,17.98
2022-11-16T22:48:18.720Z,17.13
2022-11-16T22:50:45.247Z,16.95
2022-11-16T22:53:11.819Z,22.77
2022-11-16T22:55:39.099Z,20.75
2022-11-16T22:58:06.044Z,21.10
2022-11-16T23:00:37.456Z,20.52
2022-11-16T23:03:07.346Z,20.50
2022-11-16T23:05:33.977Z,21.88
2022-11-16T23:08:00.550Z,19.33
2022-11-16T23:10:27.149Z,17.23
2022-11-16T23:13:12.478Z,15.20
2022-11-16T23:15:50.787Z,13.13
2022-11-16T23:18:19.508Z,12.95
2022-11-16T23:21:04.599Z,12.50
2022-11-16T23:23:49.493Z,14.85
2022-11-16T23:26:42.019Z,12.68
2022-11-16T23:29:10.497Z,13.52
2022-11-16T23:31:37.711Z,14.05
2022-11-16T23:34:05.157Z,12.65
2022-11-16T23:36:31.883Z,11.95
2022-11-16T23:38:58.389Z,13.75
2022-11-16T23:41:43.242Z,12.93
2022-11-16T23:44:09.743Z,14.60
2022-11-16T23:46:36.296Z,18.90
2022-11-16T23:49:02.848Z,15.02
2022-11-16T23:51:29.409Z,15.55
2022-11-16T23:53:56.039Z,15.18
2022-11-16T23:56:23.293Z,14.45
2022-11-16T23:58:50.159Z,12.20
